• Join FlightAware (Why Join?)
  • Login
  • US Flag 
Trick or treat! (Boo!!) 
12:00AM EDT


 

Airport Tracker/Info


-or-


 

Live Flight TrackerFlight Track Log ✈ AWI3704 ✈ 26-May-2013 ✈ KALB - KPHL

Flight Track Log - Related Links

Times and Time Zones

All times are in EDT time to prevent confusion due to time zone crossing. See the AWI3704 flight status page for this flight to view local times or setup timezone preferences in your user account.

Time Position Orientation Groundspeed Altitude Reporting Facility
EDT Latitude Longitude Course Direction KTS MPH feet Rate Location/Type
11:38AM 42.7483 -73.8283 220° Southwest 150 173 1,400  Level Boston Center
11:39AM 42.7433 -73.8989 265° West 188 216 3,800 2,100 Climbing Boston Center
11:40AM 42.7334 -74.1719 270° West  Level FlightAware Approximate
11:40AM 42.7447 -73.9442 272° West 197 227 5,300  Level Boston Center
11:41AM 42.7333 -74.2959 270° West  Level FlightAware Approximate
11:41AM 42.7083 -74.0253 239° Southwest 217 250 7,400  Level Boston Center
11:42AM 42.6717 -74.3840 220° Southwest  Level FlightAware Approximate
11:42AM 42.6589 -74.1172 234° Southwest 257 296 9,800  Level Boston Center
11:43AM 42.6016 -74.4629 220° Southwest  Level FlightAware Approximate
11:43AM 42.6283 -74.2178 248° West 280 322 12,100  Level Boston Center
11:44AM 42.5953 -74.3214 247° West 301 346 14,900 2,400 Climbing Boston Center
11:45AM 42.5622 -74.4275 247° West 306 352 17,000 1,800 Climbing Boston Center
11:46AM 42.4850 -74.5461 229° Southwest 341 392 18,900 900 Climbing Boston Center
11:47AM 42.4128 -74.6250 219° Southwest 368 423 19,000  Climbing Boston Center
11:49AM 42.2133 -74.8531 220° Southwest 371 427 19,000  Level New York Center
11:50AM 42.1375 -74.9406 221° Southwest 371 427 19,000  Level New York Center
11:51AM 42.0614 -75.0308 221° Southwest 371 427 19,000  Level New York Center
11:52AM 41.9856 -75.1125 219° Southwest 371 427 19,000  Level New York Center
11:53AM 41.9081 -75.1797 213° Southwest 366 421 19,000 -240 Level New York Center
11:54AM 41.8222 -75.2519 212° Southwest 371 427 18,600 -1,020 Descending New York Center
11:55AM 41.7297 -75.3264 211° Southwest 366 421 17,000 -1,620 Descending New York Center
11:56AM 41.6481 -75.3903 210° Southwest 354 407 15,400 -1,500 Descending New York Center
11:57AM 41.5708 -75.4542 212° Southwest 341 392 14,000 -1,500 Descending New York Center
11:58AM 41.5019 -75.5075 210° Southwest 329 379 12,500 -1,020 Descending New York Center
11:59AM 41.4244 -75.5683 210° Southwest 329 379 12,000 -300 Descending New York Center
12:00PM 41.3469 -75.6292 211° Southwest 329 379 12,000  Level New York Center
12:01PM 41.2572 -75.6864 206° Southwest 329 379 12,000  Level New York Center
12:02PM 41.1619 -75.6767 176° South 319 367 12,000  Level New York Center
12:03PM 41.0778 -75.6431 163° South 337 388 12,000  Level New York Center
12:04PM 40.9769 -75.6111 167° South 343 395 12,100  Climbing New York Center
12:05PM 40.8928 -75.5831 166° South 355 409 12,000 -60 Descending New York Center
12:06PM 40.7981 -75.5517 166° South 355 409 12,000  Level New York Center
12:07PM 40.6956 -75.5144 165° South 350 403 12,100 -60 Climbing New York Center
12:08PM 40.6028 -75.4861 167° South 350 403 11,900 -720 Descending New York Center
12:09PM 40.5186 -75.4558 165° South 340 391 10,700 -1,200 Descending New York Center
12:10PM 40.4303 -75.4253 165° South 324 373 9,500 -1,200 Descending New York Center
12:11PM 40.3528 -75.3792 156° South 313 360 8,300 -1,200 Descending New York Center
12:12PM 40.2794 -75.3389 157° South 301 346 7,100 -900 Descending New York Center
12:13PM 40.2119 -75.3019 157° South 264 304 6,600 -840 Descending New York Center
12:14PM 40.1528 -75.2681 156° South 252 290 5,500 -1,080 Descending New York Center
12:15PM 40.0936 -75.2372 158° South 238 274 4,500 -900 Descending New York Center
12:16PM 40.0667 -75.2167 150° Southeast 217 250 4,100 -360 Descending Philadelphia TRACON
12:17PM 40.0000 -75.1833 159° South 219 252 4,000 -60 Descending Philadelphia TRACON
12:18PM 39.9500 -75.1667 166° South 221 254 4,000 -540 Level Philadelphia TRACON
12:19PM 39.8833 -75.1500 169° South 209 241 2,900 -1,020 Descending Philadelphia TRACON